sensor_id;sensor_type;location;lat;lon;timestamp;P1;durP1;ratioP1;P2;durP2;ratioP2
17761;SDS011;9005;48.838;10.112;2023-04-06T00:00:07;4.63;;;3.08;;
17761;SDS011;9005;48.838;10.112;2023-04-06T00:02:34;5.63;;;3.10;;
17761;SDS011;9005;48.838;10.112;2023-04-06T00:05:01;3.03;;;2.70;;
17761;SDS011;9005;48.838;10.112;2023-04-06T00:07:28;3.25;;;2.50;;
17761;SDS011;9005;48.838;10.112;2023-04-06T00:09:55;5.15;;;3.25;;
17761;SDS011;9005;48.838;10.112;2023-04-06T00:12:21;3.35;;;3.05;;
17761;SDS011;9005;48.838;10.112;2023-04-06T00:14:49;5.63;;;3.25;;
17761;SDS011;9005;48.838;10.112;2023-04-06T00:17:16;6.40;;;3.10;;
17761;SDS011;9005;48.838;10.112;2023-04-06T00:19:43;4.55;;;3.05;;
17761;SDS011;9005;48.838;10.112;2023-04-06T00:22:10;3.08;;;2.78;;
17761;SDS011;9005;48.838;10.112;2023-04-06T00:24:36;4.63;;;3.20;;
17761;SDS011;9005;48.838;10.112;2023-04-06T00:27:03;3.85;;;2.72;;
17761;SDS011;9005;48.838;10.112;2023-04-06T00:29:30;4.63;;;2.45;;
17761;SDS011;9005;48.838;10.112;2023-04-06T00:31:58;4.90;;;2.97;;
17761;SDS011;9005;48.838;10.112;2023-04-06T00:34:25;2.85;;;2.33;;
17761;SDS011;9005;48.838;10.112;2023-04-06T00:36:51;3.47;;;2.90;;
17761;SDS011;9005;48.838;10.112;2023-04-06T00:39:18;4.20;;;2.38;;
17761;SDS011;9005;48.838;10.112;2023-04-06T00:41:45;4.07;;;2.70;;
17761;SDS011;9005;48.838;10.112;2023-04-06T00:44:15;4.03;;;3.50;;
17761;SDS011;9005;48.838;10.112;2023-04-06T00:46:42;3.70;;;2.58;;
17761;SDS011;9005;48.838;10.112;2023-04-06T00:49:10;5.93;;;2.78;;
17761;SDS011;9005;48.838;10.112;2023-04-06T00:51:37;3.45;;;2.72;;
17761;SDS011;9005;48.838;10.112;2023-04-06T00:54:03;4.90;;;3.00;;
17761;SDS011;9005;48.838;10.112;2023-04-06T00:56:31;5.85;;;3.00;;
17761;SDS011;9005;48.838;10.112;2023-04-06T00:58:58;4.35;;;2.67;;
17761;SDS011;9005;48.838;10.112;2023-04-06T01:01:25;3.83;;;2.55;;
17761;SDS011;9005;48.838;10.112;2023-04-06T01:03:53;2.78;;;2.45;;
17761;SDS011;9005;48.838;10.112;2023-04-06T01:06:21;4.03;;;2.80;;
17761;SDS011;9005;48.838;10.112;2023-04-06T01:08:48;2.45;;;2.20;;
17761;SDS011;9005;48.838;10.112;2023-04-06T01:11:15;4.03;;;2.40;;
17761;SDS011;9005;48.838;10.112;2023-04-06T01:13:43;4.90;;;2.55;;
17761;SDS011;9005;48.838;10.112;2023-04-06T01:16:09;2.90;;;2.50;;
17761;SDS011;9005;48.838;10.112;2023-04-06T01:18:37;3.25;;;2.70;;
17761;SDS011;9005;48.838;10.112;2023-04-06T01:21:04;4.25;;;2.85;;
17761;SDS011;9005;48.838;10.112;2023-04-06T01:23:34;5.00;;;2.72;;
17761;SDS011;9005;48.838;10.112;2023-04-06T01:26:01;3.15;;;2.42;;
17761;SDS011;9005;48.838;10.112;2023-04-06T01:28:28;3.08;;;2.30;;
17761;SDS011;9005;48.838;10.112;2023-04-06T01:30:55;3.60;;;2.60;;
17761;SDS011;9005;48.838;10.112;2023-04-06T01:33:21;3.22;;;2.92;;
17761;SDS011;9005;48.838;10.112;2023-04-06T01:35:48;2.50;;;2.30;;
17761;SDS011;9005;48.838;10.112;2023-04-06T01:38:15;3.47;;;2.30;;
17761;SDS011;9005;48.838;10.112;2023-04-06T01:40:43;3.78;;;2.53;;
17761;SDS011;9005;48.838;10.112;2023-04-06T01:43:10;3.25;;;2.90;;
17761;SDS011;9005;48.838;10.112;2023-04-06T01:45:36;2.63;;;2.20;;
17761;SDS011;9005;48.838;10.112;2023-04-06T01:48:03;3.75;;;2.50;;
17761;SDS011;9005;48.838;10.112;2023-04-06T01:50:30;3.95;;;2.58;;
17761;SDS011;9005;48.838;10.112;2023-04-06T01:52:57;3.30;;;2.40;;
17761;SDS011;9005;48.838;10.112;2023-04-06T01:55:24;2.30;;;2.10;;
17761;SDS011;9005;48.838;10.112;2023-04-06T01:57:52;3.45;;;2.35;;
17761;SDS011;9005;48.838;10.112;2023-04-06T02:00:19;3.40;;;2.50;;
17761;SDS011;9005;48.838;10.112;2023-04-06T02:02:46;2.75;;;2.47;;
17761;SDS011;9005;48.838;10.112;2023-04-06T02:05:13;3.00;;;2.42;;
17761;SDS011;9005;48.838;10.112;2023-04-06T02:07:40;4.65;;;2.47;;
17761;SDS011;9005;48.838;10.112;2023-04-06T02:10:10;3.05;;;2.03;;
17761;SDS011;9005;48.838;10.112;2023-04-06T02:12:38;5.03;;;2.80;;
17761;SDS011;9005;48.838;10.112;2023-04-06T02:15:07;4.22;;;2.47;;
17761;SDS011;9005;48.838;10.112;2023-04-06T02:17:34;2.50;;;2.20;;
17761;SDS011;9005;48.838;10.112;2023-04-06T02:20:01;7.47;;;2.13;;
17761;SDS011;9005;48.838;10.112;2023-04-06T02:22:27;2.40;;;2.05;;
17761;SDS011;9005;48.838;10.112;2023-04-06T02:24:54;4.13;;;2.30;;
17761;SDS011;9005;48.838;10.112;2023-04-06T02:27:21;2.22;;;2.03;;
17761;SDS011;9005;48.838;10.112;2023-04-06T02:29:48;2.50;;;1.73;;
17761;SDS011;9005;48.838;10.112;2023-04-06T02:32:16;2.55;;;2.35;;
17761;SDS011;9005;48.838;10.112;2023-04-06T02:34:43;5.80;;;2.30;;
17761;SDS011;9005;48.838;10.112;2023-04-06T02:37:09;3.63;;;2.15;;
17761;SDS011;9005;48.838;10.112;2023-04-06T02:39:36;5.25;;;2.33;;
17761;SDS011;9005;48.838;10.112;2023-04-06T02:42:03;3.28;;;2.03;;
17761;SDS011;9005;48.838;10.112;2023-04-06T02:44:30;3.78;;;1.80;;
17761;SDS011;9005;48.838;10.112;2023-04-06T02:46:57;2.13;;;1.92;;
17761;SDS011;9005;48.838;10.112;2023-04-06T02:49:25;8.68;;;2.08;;
17761;SDS011;9005;48.838;10.112;2023-04-06T02:51:51;3.05;;;2.20;;
17761;SDS011;9005;48.838;10.112;2023-04-06T02:54:18;2.45;;;1.30;;
17761;SDS011;9005;48.838;10.112;2023-04-06T02:56:45;2.97;;;1.60;;
17761;SDS011;9005;48.838;10.112;2023-04-06T02:59:12;2.40;;;1.95;;
17761;SDS011;9005;48.838;10.112;2023-04-06T03:01:38;2.45;;;1.85;;
17761;SDS011;9005;48.838;10.112;2023-04-06T03:04:05;2.08;;;1.73;;
17761;SDS011;9005;48.838;10.112;2023-04-06T03:06:33;2.80;;;1.90;;
17761;SDS011;9005;48.838;10.112;2023-04-06T03:09:00;3.50;;;1.83;;
17761;SDS011;9005;48.838;10.112;2023-04-06T03:11:28;3.20;;;2.47;;
17761;SDS011;9005;48.838;10.112;2023-04-06T03:13:55;2.53;;;2.25;;
17761;SDS011;9005;48.838;10.112;2023-04-06T03:16:21;3.25;;;2.08;;
17761;SDS011;9005;48.838;10.112;2023-04-06T03:18:48;2.97;;;1.75;;
17761;SDS011;9005;48.838;10.112;2023-04-06T03:21:15;2.25;;;1.60;;
17761;SDS011;9005;48.838;10.112;2023-04-06T03:23:43;3.83;;;2.08;;
17761;SDS011;9005;48.838;10.112;2023-04-06T03:26:09;3.92;;;2.47;;
17761;SDS011;9005;48.838;10.112;2023-04-06T03:28:36;2.70;;;2.35;;
17761;SDS011;9005;48.838;10.112;2023-04-06T03:31:03;4.32;;;2.25;;
17761;SDS011;9005;48.838;10.112;2023-04-06T03:33:30;3.83;;;1.98;;
17761;SDS011;9005;48.838;10.112;2023-04-06T03:35:57;1.98;;;1.88;;
17761;SDS011;9005;48.838;10.112;2023-04-06T03:38:23;1.35;;;1.23;;
17761;SDS011;9005;48.838;10.112;2023-04-06T03:40:51;1.67;;;1.58;;
17761;SDS011;9005;48.838;10.112;2023-04-06T03:43:18;1.65;;;1.40;;
17761;SDS011;9005;48.838;10.112;2023-04-06T03:45:45;2.85;;;1.80;;
17761;SDS011;9005;48.838;10.112;2023-04-06T03:48:11;1.92;;;1.40;;
17761;SDS011;9005;48.838;10.112;2023-04-06T03:50:38;1.65;;;1.30;;
17761;SDS011;9005;48.838;10.112;2023-04-06T03:53:05;1.92;;;1.42;;
17761;SDS011;9005;48.838;10.112;2023-04-06T03:55:31;2.50;;;1.67;;
17761;SDS011;9005;48.838;10.112;2023-04-06T03:57:59;1.10;;;0.98;;
17761;SDS011;9005;48.838;10.112;2023-04-06T04:00:27;2.63;;;1.90;;
17761;SDS011;9005;48.838;10.112;2023-04-06T04:02:54;5.03;;;2.72;;
17761;SDS011;9005;48.838;10.112;2023-04-06T04:05:20;4.05;;;2.05;;
17761;SDS011;9005;48.838;10.112;2023-04-06T04:07:50;4.15;;;2.47;;
17761;SDS011;9005;48.838;10.112;2023-04-06T04:10:16;2.95;;;2.10;;
17761;SDS011;9005;48.838;10.112;2023-04-06T04:12:43;3.20;;;2.35;;
17761;SDS011;9005;48.838;10.112;2023-04-06T04:15:11;4.72;;;2.42;;
17761;SDS011;9005;48.838;10.112;2023-04-06T04:17:38;3.50;;;2.78;;
17761;SDS011;9005;48.838;10.112;2023-04-06T04:20:05;4.13;;;2.63;;
17761;SDS011;9005;48.838;10.112;2023-04-06T04:22:33;4.70;;;3.20;;
17761;SDS011;9005;48.838;10.112;2023-04-06T04:25:00;3.63;;;2.40;;
17761;SDS011;9005;48.838;10.112;2023-04-06T04:27:26;5.00;;;3.58;;
17761;SDS011;9005;48.838;10.112;2023-04-06T04:29:53;4.38;;;2.92;;
17761;SDS011;9005;48.838;10.112;2023-04-06T04:32:21;6.47;;;2.97;;
17761;SDS011;9005;48.838;10.112;2023-04-06T04:34:52;4.88;;;2.40;;
17761;SDS011;9005;48.838;10.112;2023-04-06T04:37:18;4.05;;;2.80;;
17761;SDS011;9005;48.838;10.112;2023-04-06T04:39:45;3.80;;;2.75;;
17761;SDS011;9005;48.838;10.112;2023-04-06T04:42:12;2.90;;;2.58;;
17761;SDS011;9005;48.838;10.112;2023-04-06T04:44:39;3.50;;;2.70;;
17761;SDS011;9005;48.838;10.112;2023-04-06T04:47:06;6.15;;;2.60;;
17761;SDS011;9005;48.838;10.112;2023-04-06T04:49:34;3.90;;;2.50;;
17761;SDS011;9005;48.838;10.112;2023-04-06T04:52:00;3.38;;;2.58;;
17761;SDS011;9005;48.838;10.112;2023-04-06T04:54:28;3.53;;;2.72;;
17761;SDS011;9005;48.838;10.112;2023-04-06T04:56:55;4.13;;;2.80;;
17761;SDS011;9005;48.838;10.112;2023-04-06T04:59:21;4.45;;;2.65;;
17761;SDS011;9005;48.838;10.112;2023-04-06T05:01:48;4.00;;;2.55;;
17761;SDS011;9005;48.838;10.112;2023-04-06T05:04:15;2.78;;;2.40;;
17761;SDS011;9005;48.838;10.112;2023-04-06T05:06:43;5.05;;;2.65;;
17761;SDS011;9005;48.838;10.112;2023-04-06T05:09:09;4.78;;;2.45;;
17761;SDS011;9005;48.838;10.112;2023-04-06T05:11:36;4.18;;;2.60;;
17761;SDS011;9005;48.838;10.112;2023-04-06T05:14:03;4.60;;;2.70;;
17761;SDS011;9005;48.838;10.112;2023-04-06T05:16:31;3.60;;;2.13;;
17761;SDS011;9005;48.838;10.112;2023-04-06T05:18:58;4.82;;;2.72;;
17761;SDS011;9005;48.838;10.112;2023-04-06T05:21:25;4.43;;;2.88;;
17761;SDS011;9005;48.838;10.112;2023-04-06T05:23:54;6.65;;;3.33;;
17761;SDS011;9005;48.838;10.112;2023-04-06T05:26:21;4.60;;;3.33;;
17761;SDS011;9005;48.838;10.112;2023-04-06T05:28:47;4.70;;;3.40;;
17761;SDS011;9005;48.838;10.112;2023-04-06T05:31:14;12.85;;;4.80;;
17761;SDS011;9005;48.838;10.112;2023-04-06T05:33:41;4.60;;;3.80;;
17761;SDS011;9005;48.838;10.112;2023-04-06T05:36:08;8.43;;;4.07;;
17761;SDS011;9005;48.838;10.112;2023-04-06T05:38:35;9.35;;;4.30;;
17761;SDS011;9005;48.838;10.112;2023-04-06T05:41:03;5.43;;;3.83;;
17761;SDS011;9005;48.838;10.112;2023-04-06T05:43:30;5.72;;;3.45;;
17761;SDS011;9005;48.838;10.112;2023-04-06T05:45:57;6.78;;;4.53;;
17761;SDS011;9005;48.838;10.112;2023-04-06T05:48:24;7.22;;;4.65;;
17761;SDS011;9005;48.838;10.112;2023-04-06T05:50:51;6.13;;;4.60;;
17761;SDS011;9005;48.838;10.112;2023-04-06T05:53:18;6.85;;;4.63;;
17761;SDS011;9005;48.838;10.112;2023-04-06T05:55:46;6.28;;;3.28;;
17761;SDS011;9005;48.838;10.112;2023-04-06T05:58:14;7.70;;;5.35;;
17761;SDS011;9005;48.838;10.112;2023-04-06T06:00:42;6.13;;;3.50;;
17761;SDS011;9005;48.838;10.112;2023-04-06T06:03:10;7.28;;;3.78;;
17761;SDS011;9005;48.838;10.112;2023-04-06T06:05:37;4.20;;;3.08;;
17761;SDS011;9005;48.838;10.112;2023-04-06T06:08:04;4.00;;;2.90;;
17761;SDS011;9005;48.838;10.112;2023-04-06T06:10:32;3.97;;;2.85;;
17761;SDS011;9005;48.838;10.112;2023-04-06T06:12:58;2.47;;;2.17;;
17761;SDS011;9005;48.838;10.112;2023-04-06T06:15:26;6.57;;;3.38;;
17761;SDS011;9005;48.838;10.112;2023-04-06T06:17:53;5.35;;;3.35;;
17761;SDS011;9005;48.838;10.112;2023-04-06T06:20:20;5.38;;;2.70;;
17761;SDS011;9005;48.838;10.112;2023-04-06T06:22:46;5.72;;;2.60;;
17761;SDS011;9005;48.838;10.112;2023-04-06T06:25:13;7.22;;;3.53;;
17761;SDS011;9005;48.838;10.112;2023-04-06T06:27:40;4.13;;;2.20;;
17761;SDS011;9005;48.838;10.112;2023-04-06T06:30:08;3.55;;;2.05;;
17761;SDS011;9005;48.838;10.112;2023-04-06T06:32:36;15.13;;;3.38;;
17761;SDS011;9005;48.838;10.112;2023-04-06T06:35:04;2.03;;;1.55;;
17761;SDS011;9005;48.838;10.112;2023-04-06T06:37:31;3.08;;;2.35;;
17761;SDS011;9005;48.838;10.112;2023-04-06T06:39:58;3.42;;;2.55;;
17761;SDS011;9005;48.838;10.112;2023-04-06T06:42:25;3.60;;;2.30;;
17761;SDS011;9005;48.838;10.112;2023-04-06T06:44:52;2.05;;;1.88;;
17761;SDS011;9005;48.838;10.112;2023-04-06T06:47:19;4.00;;;2.85;;
17761;SDS011;9005;48.838;10.112;2023-04-06T06:49:47;3.08;;;1.98;;
17761;SDS011;9005;48.838;10.112;2023-04-06T06:52:15;3.92;;;2.20;;
17761;SDS011;9005;48.838;10.112;2023-04-06T06:54:42;3.70;;;2.50;;
17761;SDS011;9005;48.838;10.112;2023-04-06T06:57:09;4.35;;;2.47;;
17761;SDS011;9005;48.838;10.112;2023-04-06T06:59:36;3.38;;;2.47;;
17761;SDS011;9005;48.838;10.112;2023-04-06T07:02:03;2.08;;;1.85;;
17761;SDS011;9005;48.838;10.112;2023-04-06T07:04:30;4.25;;;2.30;;
17761;SDS011;9005;48.838;10.112;2023-04-06T07:06:58;3.25;;;2.00;;
17761;SDS011;9005;48.838;10.112;2023-04-06T07:09:26;5.38;;;2.55;;
17761;SDS011;9005;48.838;10.112;2023-04-06T07:11:53;2.92;;;2.13;;
17761;SDS011;9005;48.838;10.112;2023-04-06T07:14:21;5.97;;;3.42;;
17761;SDS011;9005;48.838;10.112;2023-04-06T07:16:48;4.60;;;2.63;;
17761;SDS011;9005;48.838;10.112;2023-04-06T07:19:15;5.15;;;3.08;;
17761;SDS011;9005;48.838;10.112;2023-04-06T07:21:42;3.55;;;2.80;;
17761;SDS011;9005;48.838;10.112;2023-04-06T07:24:10;2.65;;;1.75;;
17761;SDS011;9005;48.838;10.112;2023-04-06T07:26:37;6.45;;;2.55;;
17761;SDS011;9005;48.838;10.112;2023-04-06T07:29:04;4.10;;;2.65;;
17761;SDS011;9005;48.838;10.112;2023-04-06T07:31:30;3.90;;;2.40;;
17761;SDS011;9005;48.838;10.112;2023-04-06T07:33:57;4.38;;;3.25;;
17761;SDS011;9005;48.838;10.112;2023-04-06T07:36:24;6.65;;;3.75;;
17761;SDS011;9005;48.838;10.112;2023-04-06T07:38:51;4.43;;;2.80;;
17761;SDS011;9005;48.838;10.112;2023-04-06T07:41:19;4.05;;;3.30;;
17761;SDS011;9005;48.838;10.112;2023-04-06T07:43:45;5.53;;;3.25;;
17761;SDS011;9005;48.838;10.112;2023-04-06T07:46:12;7.47;;;4.28;;
17761;SDS011;9005;48.838;10.112;2023-04-06T07:48:39;5.53;;;3.97;;
17761;SDS011;9005;48.838;10.112;2023-04-06T07:51:06;5.35;;;3.20;;
17761;SDS011;9005;48.838;10.112;2023-04-06T07:53:33;3.90;;;3.22;;
17761;SDS011;9005;48.838;10.112;2023-04-06T07:56:00;5.80;;;4.45;;
17761;SDS011;9005;48.838;10.112;2023-04-06T07:58:28;5.45;;;4.90;;
17761;SDS011;9005;48.838;10.112;2023-04-06T08:00:55;5.50;;;4.00;;
17761;SDS011;9005;48.838;10.112;2023-04-06T08:03:22;11.73;;;4.95;;
17761;SDS011;9005;48.838;10.112;2023-04-06T08:05:50;4.32;;;3.70;;
17761;SDS011;9005;48.838;10.112;2023-04-06T08:08:17;5.72;;;3.97;;
17761;SDS011;9005;48.838;10.112;2023-04-06T08:10:44;5.45;;;4.32;;
17761;SDS011;9005;48.838;10.112;2023-04-06T08:13:12;4.40;;;3.75;;
17761;SDS011;9005;48.838;10.112;2023-04-06T08:15:40;4.35;;;3.75;;
17761;SDS011;9005;48.838;10.112;2023-04-06T08:18:07;6.80;;;4.35;;
17761;SDS011;9005;48.838;10.112;2023-04-06T08:20:34;5.63;;;4.47;;
17761;SDS011;9005;48.838;10.112;2023-04-06T08:23:01;5.53;;;3.75;;
17761;SDS011;9005;48.838;10.112;2023-04-06T08:25:29;4.63;;;3.72;;
17761;SDS011;9005;48.838;10.112;2023-04-06T08:27:56;5.03;;;4.20;;
17761;SDS011;9005;48.838;10.112;2023-04-06T08:30:22;5.80;;;4.28;;
17761;SDS011;9005;48.838;10.112;2023-04-06T08:32:50;4.50;;;4.00;;
17761;SDS011;9005;48.838;10.112;2023-04-06T08:35:17;4.90;;;4.20;;
17761;SDS011;9005;48.838;10.112;2023-04-06T08:37:44;10.13;;;5.15;;
17761;SDS011;9005;48.838;10.112;2023-04-06T08:40:11;4.45;;;4.05;;
17761;SDS011;9005;48.838;10.112;2023-04-06T08:42:39;4.55;;;4.05;;
17761;SDS011;9005;48.838;10.112;2023-04-06T08:45:08;4.57;;;4.00;;
17761;SDS011;9005;48.838;10.112;2023-04-06T08:47:35;3.95;;;3.33;;
17761;SDS011;9005;48.838;10.112;2023-04-06T08:50:04;4.03;;;3.63;;
17761;SDS011;9005;48.838;10.112;2023-04-06T08:52:33;5.28;;;4.50;;
17761;SDS011;9005;48.838;10.112;2023-04-06T08:55:00;6.45;;;3.97;;
17761;SDS011;9005;48.838;10.112;2023-04-06T08:57:26;4.65;;;3.80;;
17761;SDS011;9005;48.838;10.112;2023-04-06T08:59:54;4.28;;;3.53;;
17761;SDS011;9005;48.838;10.112;2023-04-06T09:02:22;4.05;;;3.50;;
17761;SDS011;9005;48.838;10.112;2023-04-06T09:04:50;4.00;;;3.58;;
17761;SDS011;9005;48.838;10.112;2023-04-06T09:07:20;5.43;;;3.50;;
17761;SDS011;9005;48.838;10.112;2023-04-06T09:09:47;6.30;;;3.70;;
17761;SDS011;9005;48.838;10.112;2023-04-06T09:12:24;4.47;;;4.07;;
17761;SDS011;9005;48.838;10.112;2023-04-06T09:14:52;5.32;;;3.83;;
17761;SDS011;9005;48.838;10.112;2023-04-06T09:17:19;4.20;;;3.78;;
17761;SDS011;9005;48.838;10.112;2023-04-06T09:19:47;4.55;;;3.70;;
17761;SDS011;9005;48.838;10.112;2023-04-06T09:22:14;4.15;;;3.15;;
17761;SDS011;9005;48.838;10.112;2023-04-06T09:24:43;5.25;;;3.85;;
17761;SDS011;9005;48.838;10.112;2023-04-06T09:27:11;6.05;;;3.80;;
17761;SDS011;9005;48.838;10.112;2023-04-06T09:29:37;4.63;;;3.60;;
17761;SDS011;9005;48.838;10.112;2023-04-06T09:32:04;3.85;;;3.50;;
17761;SDS011;9005;48.838;10.112;2023-04-06T09:34:32;4.38;;;3.78;;
17761;SDS011;9005;48.838;10.112;2023-04-06T09:36:59;4.00;;;2.85;;
17761;SDS011;9005;48.838;10.112;2023-04-06T09:39:26;4.03;;;3.28;;
17761;SDS011;9005;48.838;10.112;2023-04-06T09:41:54;4.05;;;3.03;;
17761;SDS011;9005;48.838;10.112;2023-04-06T09:44:21;3.40;;;3.10;;
17761;SDS011;9005;48.838;10.112;2023-04-06T09:46:50;4.53;;;3.70;;
17761;SDS011;9005;48.838;10.112;2023-04-06T09:49:20;3.47;;;3.05;;
17761;SDS011;9005;48.838;10.112;2023-04-06T09:51:49;3.50;;;3.20;;
17761;SDS011;9005;48.838;10.112;2023-04-06T09:54:20;4.57;;;3.65;;
17761;SDS011;9005;48.838;10.112;2023-04-06T09:56:50;5.60;;;4.63;;
17761;SDS011;9005;48.838;10.112;2023-04-06T09:59:25;6.28;;;4.50;;
17761;SDS011;9005;48.838;10.112;2023-04-06T10:02:04;4.70;;;3.78;;
17761;SDS011;9005;48.838;10.112;2023-04-06T10:04:33;5.20;;;2.58;;
17761;SDS011;9005;48.838;10.112;2023-04-06T10:07:06;4.10;;;3.70;;
17761;SDS011;9005;48.838;10.112;2023-04-06T10:09:34;3.97;;;3.45;;
17761;SDS011;9005;48.838;10.112;2023-04-06T10:12:03;5.35;;;3.55;;
17761;SDS011;9005;48.838;10.112;2023-04-06T10:14:32;3.90;;;3.42;;
17761;SDS011;9005;48.838;10.112;2023-04-06T10:17:01;5.82;;;4.10;;
17761;SDS011;9005;48.838;10.112;2023-04-06T10:19:32;4.13;;;3.28;;
17761;SDS011;9005;48.838;10.112;2023-04-06T10:22:02;5.30;;;4.10;;
17761;SDS011;9005;48.838;10.112;2023-04-06T10:24:32;6.50;;;4.20;;
17761;SDS011;9005;48.838;10.112;2023-04-06T10:26:59;6.10;;;3.60;;
17761;SDS011;9005;48.838;10.112;2023-04-06T10:29:28;4.38;;;3.40;;
17761;SDS011;9005;48.838;10.112;2023-04-06T10:32:06;4.40;;;3.70;;
17761;SDS011;9005;48.838;10.112;2023-04-06T10:34:34;4.68;;;3.80;;
17761;SDS011;9005;48.838;10.112;2023-04-06T10:37:10;3.83;;;3.53;;
17761;SDS011;9005;48.838;10.112;2023-04-06T10:39:45;5.07;;;4.07;;
17761;SDS011;9005;48.838;10.112;2023-04-06T10:42:12;3.50;;;3.17;;
17761;SDS011;9005;48.838;10.112;2023-04-06T10:44:43;4.20;;;3.30;;
17761;SDS011;9005;48.838;10.112;2023-04-06T10:47:15;4.72;;;3.65;;
17761;SDS011;9005;48.838;10.112;2023-04-06T10:49:43;4.28;;;3.88;;
17761;SDS011;9005;48.838;10.112;2023-04-06T10:52:10;4.65;;;3.72;;
17761;SDS011;9005;48.838;10.112;2023-04-06T10:54:39;5.43;;;3.85;;
17761;SDS011;9005;48.838;10.112;2023-04-06T10:57:09;4.75;;;3.70;;
17761;SDS011;9005;48.838;10.112;2023-04-06T10:59:36;3.97;;;3.58;;
17761;SDS011;9005;48.838;10.112;2023-04-06T11:02:04;3.85;;;2.85;;
17761;SDS011;9005;48.838;10.112;2023-04-06T11:04:31;3.78;;;3.47;;
17761;SDS011;9005;48.838;10.112;2023-04-06T11:06:58;4.47;;;3.80;;
17761;SDS011;9005;48.838;10.112;2023-04-06T11:09:24;4.32;;;3.92;;
17761;SDS011;9005;48.838;10.112;2023-04-06T11:11:52;4.15;;;3.30;;
17761;SDS011;9005;48.838;10.112;2023-04-06T11:14:20;4.05;;;3.35;;
17761;SDS011;9005;48.838;10.112;2023-04-06T11:16:47;3.92;;;3.55;;
17761;SDS011;9005;48.838;10.112;2023-04-06T11:19:16;3.15;;;2.85;;
17761;SDS011;9005;48.838;10.112;2023-04-06T11:21:44;3.88;;;3.47;;
17761;SDS011;9005;48.838;10.112;2023-04-06T11:24:13;3.47;;;3.17;;
17761;SDS011;9005;48.838;10.112;2023-04-06T11:26:42;6.78;;;3.58;;
17761;SDS011;9005;48.838;10.112;2023-04-06T11:29:11;2.90;;;2.67;;
17761;SDS011;9005;48.838;10.112;2023-04-06T11:31:42;3.17;;;2.83;;
17761;SDS011;9005;48.838;10.112;2023-04-06T11:34:12;4.30;;;3.30;;
17761;SDS011;9005;48.838;10.112;2023-04-06T11:36:41;3.92;;;3.50;;
17761;SDS011;9005;48.838;10.112;2023-04-06T11:39:09;4.80;;;3.15;;
17761;SDS011;9005;48.838;10.112;2023-04-06T11:41:36;4.38;;;3.03;;
17761;SDS011;9005;48.838;10.112;2023-04-06T11:44:03;4.72;;;3.25;;
17761;SDS011;9005;48.838;10.112;2023-04-06T11:46:31;4.07;;;2.95;;
17761;SDS011;9005;48.838;10.112;2023-04-06T11:48:58;3.90;;;3.50;;
17761;SDS011;9005;48.838;10.112;2023-04-06T11:51:26;3.60;;;3.00;;
17761;SDS011;9005;48.838;10.112;2023-04-06T11:53:54;4.30;;;3.60;;
17761;SDS011;9005;48.838;10.112;2023-04-06T11:56:25;4.10;;;3.70;;
17761;SDS011;9005;48.838;10.112;2023-04-06T11:58:53;3.83;;;3.42;;
17761;SDS011;9005;48.838;10.112;2023-04-06T12:01:21;3.67;;;3.38;;
17761;SDS011;9005;48.838;10.112;2023-04-06T12:03:48;3.80;;;3.40;;
17761;SDS011;9005;48.838;10.112;2023-04-06T12:06:15;3.63;;;2.95;;
17761;SDS011;9005;48.838;10.112;2023-04-06T12:08:41;3.20;;;2.90;;
17761;SDS011;9005;48.838;10.112;2023-04-06T12:11:11;3.30;;;3.00;;
17761;SDS011;9005;48.838;10.112;2023-04-06T12:13:38;3.65;;;3.35;;
17761;SDS011;9005;48.838;10.112;2023-04-06T12:16:04;3.47;;;3.17;;
17761;SDS011;9005;48.838;10.112;2023-04-06T12:18:31;3.75;;;2.92;;
17761;SDS011;9005;48.838;10.112;2023-04-06T12:20:58;4.22;;;2.50;;
17761;SDS011;9005;48.838;10.112;2023-04-06T12:23:25;3.75;;;2.88;;
17761;SDS011;9005;48.838;10.112;2023-04-06T12:25:52;3.80;;;3.15;;
17761;SDS011;9005;48.838;10.112;2023-04-06T12:28:20;4.35;;;3.10;;
17761;SDS011;9005;48.838;10.112;2023-04-06T12:30:51;3.58;;;2.78;;
17761;SDS011;9005;48.838;10.112;2023-04-06T12:33:18;2.90;;;2.60;;
17761;SDS011;9005;48.838;10.112;2023-04-06T12:35:45;3.83;;;2.92;;
17761;SDS011;9005;48.838;10.112;2023-04-06T12:38:12;3.10;;;2.80;;
17761;SDS011;9005;48.838;10.112;2023-04-06T12:40:39;4.00;;;2.78;;
17761;SDS011;9005;48.838;10.112;2023-04-06T12:43:06;6.15;;;2.83;;
17761;SDS011;9005;48.838;10.112;2023-04-06T12:45:35;2.90;;;2.60;;
17761;SDS011;9005;48.838;10.112;2023-04-06T12:48:01;2.88;;;2.67;;
17761;SDS011;9005;48.838;10.112;2023-04-06T12:50:28;4.72;;;2.80;;
17761;SDS011;9005;48.838;10.112;2023-04-06T12:52:55;3.00;;;2.35;;
17761;SDS011;9005;48.838;10.112;2023-04-06T12:55:22;3.90;;;2.58;;
17761;SDS011;9005;48.838;10.112;2023-04-06T12:57:48;2.80;;;2.47;;
17761;SDS011;9005;48.838;10.112;2023-04-06T13:00:16;2.70;;;2.42;;
17761;SDS011;9005;48.838;10.112;2023-04-06T13:02:44;3.22;;;2.58;;
17761;SDS011;9005;48.838;10.112;2023-04-06T13:05:12;3.42;;;2.38;;
17761;SDS011;9005;48.838;10.112;2023-04-06T13:07:43;3.08;;;2.55;;
17761;SDS011;9005;48.838;10.112;2023-04-06T13:10:10;3.75;;;2.55;;
17761;SDS011;9005;48.838;10.112;2023-04-06T13:12:37;3.40;;;2.38;;
17761;SDS011;9005;48.838;10.112;2023-04-06T13:15:04;3.00;;;2.30;;
17761;SDS011;9005;48.838;10.112;2023-04-06T13:17:31;3.13;;;2.50;;
17761;SDS011;9005;48.838;10.112;2023-04-06T13:19:59;3.05;;;2.67;;
17761;SDS011;9005;48.838;10.112;2023-04-06T13:22:26;3.00;;;2.70;;
17761;SDS011;9005;48.838;10.112;2023-04-06T13:24:53;3.25;;;2.40;;
17761;SDS011;9005;48.838;10.112;2023-04-06T13:27:20;2.78;;;2.38;;
17761;SDS011;9005;48.838;10.112;2023-04-06T13:29:47;2.50;;;2.30;;
17761;SDS011;9005;48.838;10.112;2023-04-06T13:32:13;3.10;;;2.70;;
17761;SDS011;9005;48.838;10.112;2023-04-06T13:34:40;2.63;;;2.42;;
17761;SDS011;9005;48.838;10.112;2023-04-06T13:37:11;6.25;;;2.53;;
17761;SDS011;9005;48.838;10.112;2023-04-06T13:39:38;3.22;;;2.10;;
17761;SDS011;9005;48.838;10.112;2023-04-06T13:42:04;2.45;;;2.25;;
17761;SDS011;9005;48.838;10.112;2023-04-06T13:44:31;2.50;;;2.30;;
17761;SDS011;9005;48.838;10.112;2023-04-06T13:46:58;3.28;;;2.60;;
17761;SDS011;9005;48.838;10.112;2023-04-06T13:49:25;2.85;;;2.50;;
17761;SDS011;9005;48.838;10.112;2023-04-06T13:51:52;3.10;;;2.53;;
17761;SDS011;9005;48.838;10.112;2023-04-06T13:54:20;3.35;;;2.30;;
17761;SDS011;9005;48.838;10.112;2023-04-06T13:56:47;2.42;;;2.22;;
17761;SDS011;9005;48.838;10.112;2023-04-06T13:59:14;2.70;;;2.50;;
17761;SDS011;9005;48.838;10.112;2023-04-06T14:01:40;2.50;;;2.30;;
17761;SDS011;9005;48.838;10.112;2023-04-06T14:04:07;2.40;;;2.20;;
17761;SDS011;9005;48.838;10.112;2023-04-06T14:06:34;2.40;;;2.20;;
17761;SDS011;9005;48.838;10.112;2023-04-06T14:09:01;2.47;;;2.28;;
17761;SDS011;9005;48.838;10.112;2023-04-06T14:11:29;2.90;;;2.60;;
17761;SDS011;9005;48.838;10.112;2023-04-06T14:13:56;2.30;;;2.10;;
17761;SDS011;9005;48.838;10.112;2023-04-06T14:16:23;4.18;;;2.88;;
17761;SDS011;9005;48.838;10.112;2023-04-06T14:18:50;2.65;;;2.30;;
17761;SDS011;9005;48.838;10.112;2023-04-06T14:21:17;4.45;;;2.15;;
17761;SDS011;9005;48.838;10.112;2023-04-06T14:23:44;2.83;;;2.40;;
17761;SDS011;9005;48.838;10.112;2023-04-06T14:26:12;3.53;;;2.10;;
17761;SDS011;9005;48.838;10.112;2023-04-06T14:28:40;3.92;;;2.20;;
17761;SDS011;9005;48.838;10.112;2023-04-06T14:31:09;2.47;;;2.28;;
17761;SDS011;9005;48.838;10.112;2023-04-06T14:33:38;2.22;;;2.03;;
17761;SDS011;9005;48.838;10.112;2023-04-06T14:36:05;2.78;;;2.58;;
17761;SDS011;9005;48.838;10.112;2023-04-06T14:38:33;2.70;;;2.50;;
17761;SDS011;9005;48.838;10.112;2023-04-06T14:41:00;3.03;;;2.17;;
17761;SDS011;9005;48.838;10.112;2023-04-06T14:43:27;3.42;;;2.58;;
17761;SDS011;9005;48.838;10.112;2023-04-06T14:45:59;2.63;;;2.10;;
17761;SDS011;9005;48.838;10.112;2023-04-06T14:48:26;3.47;;;2.50;;